Departure
Valence-Chabeuil Airport
Chabeuil, Drôme, FR
cloud Weather
- Wind
- 360° / 7 kt
- Visibility
- 6 SM
- Ceiling
- CAVOK
- Temp / Dew
- 25°C / 12°C
- Altimeter
- 30.06 inHg
Obs: 2026-09-01T18:00:00.000Z
Raw METAR
METAR LFLU 011800Z AUTO 36007KT CAVOK 25/12 Q1018
local_airport Airport
VAF · LFLU · Chabeuil, Drôme, FR
Departure
Chabeuil, Drôme, FR
Obs: 2026-09-01T18:00:00.000Z
METAR LFLU 011800Z AUTO 36007KT CAVOK 25/12 Q1018
| Date | Flight | Aircraft | Route | Takeoff | Landing | Duration | Dep Δ |
|---|---|---|---|---|---|---|---|
| 2026-07-26 | OYBTU | 458A95 | VAF → CMR | Jul 26, 11:55 UTC | Jul 26, 14:05 UTC | 2h 10m | - |
| 2026-07-24 | FJJDN | 39729C | - | Jul 24, 12:30 UTC | Jul 24, 14:00 UTC | 1h 30m | - |
| 2026-07-24 | FJENX | 39763C | - | Jul 24, 12:30 UTC | Jul 24, 14:00 UTC | 1h 30m | - |
| 2026-07-24 | FJFAV | 38EA5C | - | Jul 24, 12:30 UTC | Jul 24, 14:00 UTC | 1h 30m | - |
| 2026-07-24 | FJLGW | 390C7C | - | Jul 24, 12:30 UTC | Jul 24, 13:50 UTC | 1h 20m | - |
| 2026-07-24 | ASR172B | 3924A0 | VAF → VAF | Jul 24, 11:20 UTC | Jul 24, 16:05 UTC | 4h 45m | - |
| 2026-07-24 | FHULQ | 39D170 | - | Jul 24, 08:25 UTC | Jul 24, 09:20 UTC | 55m | - |
| 2026-07-24 | FGIJO | 39212E | VAF → VAF | Jul 24, 06:30 UTC | Jul 24, 08:00 UTC | 1h 30m | - |
| 2026-07-23 | FJENX | 39763C | VAF → VAF | Jul 23, 15:00 UTC | Jul 23, 15:25 UTC | 25m | - |
| 2026-07-23 | FGIJO | 39212E | - | Jul 23, 06:20 UTC | Jul 23, 08:00 UTC | 1h 40m | - |
| 2026-07-23 | FHNFC | 39B4A2 | VAF → CMR | Jul 23, 04:25 UTC | Jul 23, 05:35 UTC | 1h 10m | - |
| 2026-07-22 | FHULQ | 39D170 | VAF → LYN | Jul 22, 14:30 UTC | Jul 22, 14:55 UTC | 25m | - |
| 2026-07-21 | VJA539 | A6D3F2 | VAF → LBG | Jul 21, 15:10 UTC | Jul 21, 16:10 UTC | 1h 0m | - |
| 2026-07-21 | FHOPI | 39B9E8 | VAF → VAF | Jul 21, 08:15 UTC | Jul 21, 08:45 UTC | 30m | - |
| 2026-07-20 | PH0C3 | 48661F | - | Jul 20, 14:00 UTC | Jul 20, 15:40 UTC | 1h 40m | - |
| 2026-07-20 | N264MC | A28EEF | - | Jul 20, 05:30 UTC | Jul 20, 07:10 UTC | 1h 40m | - |
| 2026-07-19 | FJFAV | 38EA5C | VAF → VAF | Jul 19, 08:40 UTC | Jul 19, 09:00 UTC | 20m | - |
| 2026-07-19 | FJZCG | 3809FD | VAF → VAF | Jul 19, 07:05 UTC | Jul 19, 07:20 UTC | 15m | - |
| 2026-07-18 | FGIJO | 39212E | VAF → VAF | Jul 18, 08:45 UTC | Jul 18, 10:15 UTC | 1h 30m | - |
| 2026-07-18 | FJENX | 39763C | - | Jul 18, 07:00 UTC | Jul 18, 08:00 UTC | 1h 0m | - |
| 2026-07-18 | FHULQ | 39D170 | VAF → LTT | Jul 18, 06:20 UTC | Jul 18, 07:15 UTC | 55m | - |
| 2026-07-17 | FHJPF | 39A5E5 | - | Jul 17, 10:55 UTC | Jul 17, 11:10 UTC | 15m | - |
| 2026-07-17 | FHTPG | 39CDE6 | - | Jul 17, 07:30 UTC | Jul 17, 08:54 UTC | 1h 25m | - |
| 2026-07-16 | FHTKO | 39CD4E | - | Jul 16, 09:25 UTC | Jul 16, 10:59 UTC | 1h 35m | - |
| 2026-07-16 | FGIJO | 39212E | VAF → VAF | Jul 16, 07:40 UTC | Jul 16, 09:55 UTC | 2h 15m | - |
| Date | Flight | Aircraft | Route | Takeoff | Landing | Duration | Arr Δ |
|---|---|---|---|---|---|---|---|
| 2026-07-26 | N264CE | A28E10 | IBZ → VAF | Jul 26, 16:25 UTC | Jul 26, 18:10 UTC | 1h 45m | - |
| 2026-07-26 | FHULQ | 39D170 | - | Jul 26, 13:55 UTC | Jul 26, 15:45 UTC | 1h 50m | - |
| 2026-07-26 | FHULQ | 39D170 | - | Jul 26, 11:35 UTC | Jul 26, 11:45 UTC | 10m | - |
| 2026-07-26 | FSF901S | 460844 | - | Jul 26, 10:35 UTC | Jul 26, 11:05 UTC | 30m | - |
| 2026-07-26 | OYBTU | 458A95 | - | Jul 26, 07:45 UTC | Jul 26, 10:10 UTC | 2h 25m | - |
| 2026-07-25 | FHULQ | 39D170 | LYN → VAF | Jul 25, 13:15 UTC | Jul 25, 16:10 UTC | 2h 55m | - |
| 2026-07-25 | FHOPI | 39B9E8 | - | Jul 25, 09:20 UTC | Jul 25, 09:45 UTC | 25m | - |
| 2026-07-25 | FHULQ | 39D170 | - | Jul 25, 07:55 UTC | Jul 25, 08:05 UTC | 10m | - |
| 2026-07-25 | OYBTU | 458A95 | - | Jul 25, 03:55 UTC | Jul 25, 06:25 UTC | 2h 30m | - |
| 2026-07-24 | FHULQ | 39D170 | - | Jul 24, 14:30 UTC | Jul 24, 15:15 UTC | 45m | - |
| 2026-07-24 | FHNFC | 39B4A2 | DTM → VAF | Jul 24, 14:25 UTC | Jul 24, 16:20 UTC | 1h 55m | - |
| 2026-07-24 | N204YU | A1A318 | - | Jul 24, 13:50 UTC | Jul 24, 14:35 UTC | 45m | - |
| 2026-07-24 | FGIJO | 39212E | - | Jul 24, 13:15 UTC | Jul 24, 15:00 UTC | 1h 45m | - |
| 2026-07-24 | FGIJO | 39212E | - | Jul 24, 11:40 UTC | Jul 24, 12:20 UTC | 40m | - |
| 2026-07-24 | MILAN79 | 3B7B3A | - | Jul 24, 11:40 UTC | Jul 24, 12:35 UTC | 55m | - |
| 2026-07-24 | ASR172B | 3924A0 | VAF → VAF | Jul 24, 11:20 UTC | Jul 24, 16:05 UTC | 4h 45m | - |
| 2026-07-24 | FGIJO | 39212E | - | Jul 24, 09:15 UTC | Jul 24, 10:50 UTC | 1h 35m | - |
| 2026-07-24 | FJZCG | 3809FD | - | Jul 24, 09:05 UTC | Jul 24, 09:20 UTC | 15m | - |
| 2026-07-24 | FJJDN | 39729C | - | Jul 24, 08:20 UTC | Jul 24, 10:40 UTC | 2h 20m | - |
| 2026-07-24 | FHTQK | 39CE0A | - | Jul 24, 07:55 UTC | Jul 24, 09:00 UTC | 1h 5m | - |
| 2026-07-24 | FGIJO | 39212E | VAF → VAF | Jul 24, 06:30 UTC | Jul 24, 08:00 UTC | 1h 30m | - |
| 2026-07-23 | FHOPI | 39B9E8 | - | Jul 23, 18:15 UTC | Jul 23, 19:05 UTC | 50m | - |
| 2026-07-23 | FJENX | 39763C | VAF → VAF | Jul 23, 15:00 UTC | Jul 23, 15:25 UTC | 25m | - |
| 2026-07-23 | FHNFC | 39B4A2 | - | Jul 23, 11:25 UTC | Jul 23, 12:00 UTC | 35m | - |
| 2026-07-23 | FGIJO | 39212E | - | Jul 23, 10:00 UTC | Jul 23, 11:40 UTC | 1h 40m | - |